createdAt,value
2023-02-11T00:02:14.701Z,96082.09
2023-02-11T00:04:41.490Z,96080.47
2023-02-11T00:07:08.119Z,96082.31
2023-02-11T00:09:34.812Z,96083.41
2023-02-11T00:12:01.539Z,96074.28
2023-02-11T00:14:28.292Z,96084.44
2023-02-11T00:16:55.060Z,96077.72
2023-02-11T00:19:21.994Z,96070.22
2023-02-11T00:21:48.779Z,96078.00
2023-02-11T00:24:15.490Z,96064.31
2023-02-11T00:26:42.202Z,96069.16
2023-02-11T00:29:09.989Z,96070.22
2023-02-11T00:31:37.226Z,96065.66
2023-02-11T00:34:05.311Z,96069.66
2023-02-11T00:36:32.393Z,96072.91
2023-02-11T00:39:03.247Z,96077.47
2023-02-11T00:41:30.614Z,96075.31
2023-02-11T00:43:59.560Z,96079.31
2023-02-11T00:46:26.355Z,96092.69
2023-02-11T00:48:55.122Z,96093.19
2023-02-11T00:51:21.853Z,96103.63
2023-02-11T00:53:48.604Z,96117.22
2023-02-11T00:56:15.458Z,96119.09
2023-02-11T00:58:42.163Z,96123.13
2023-02-11T01:01:10.494Z,96125.25
2023-02-11T01:03:37.263Z,96123.66
2023-02-11T01:06:04.894Z,96126.84
2023-02-11T01:08:31.669Z,96133.56
2023-02-11T01:11:01.592Z,96124.75
2023-02-11T01:13:33.065Z,96128.19
2023-02-11T01:16:02.710Z,96118.81
2023-02-11T01:18:29.467Z,96111.34
2023-02-11T01:20:56.168Z,96115.88
2023-02-11T01:23:23.691Z,96100.59
2023-02-11T01:25:51.030Z,96093.69
2023-02-11T01:28:20.918Z,96096.63
2023-02-11T01:30:47.718Z,96088.03
2023-02-11T01:33:15.019Z,96091.78
2023-02-11T01:35:43.723Z,96089.31
2023-02-11T01:38:17.291Z,96082.34
2023-02-11T01:40:54.623Z,96084.22
2023-02-11T01:43:22.293Z,96080.22
2023-02-11T01:46:12.773Z,96092.00
2023-02-11T01:48:44.219Z,96082.09
2023-02-11T01:51:22.106Z,96076.47
2023-02-11T01:54:10.000Z,96083.66
2023-02-11T01:57:00.489Z,96074.31
2023-02-11T01:59:32.187Z,96079.66
2023-02-11T02:02:04.557Z,96068.38
2023-02-11T02:04:38.469Z,96072.38
2023-02-11T02:07:17.956Z,96059.28
2023-02-11T02:09:52.716Z,96059.50
2023-02-11T02:12:19.526Z,96053.06
2023-02-11T02:14:46.280Z,96047.19
2023-02-11T02:17:29.857Z,96044.03
2023-02-11T02:20:19.344Z,96048.31
2023-02-11T02:23:02.720Z,96033.88
2023-02-11T02:25:59.650Z,96031.47
2023-02-11T02:28:45.108Z,96027.69
2023-02-11T02:31:33.857Z,96028.22
2023-02-11T02:34:13.007Z,96020.47
2023-02-11T02:37:02.343Z,96025.28
2023-02-11T02:39:33.535Z,96020.22
2023-02-11T02:42:00.960Z,96012.47
2023-02-11T02:44:29.114Z,96012.75
2023-02-11T02:46:56.366Z,96016.25
2023-02-11T02:49:23.102Z,96015.91
2023-02-11T02:52:23.561Z,96020.72
2023-02-11T02:54:53.278Z,96016.69
2023-02-11T02:57:45.089Z,96008.69
2023-02-11T03:00:21.200Z,96000.16
2023-02-11T03:03:20.456Z,95996.13
2023-02-11T03:05:50.371Z,95995.06
2023-02-11T03:08:34.939Z,95998.31
2023-02-11T03:11:03.407Z,95996.47
2023-02-11T03:13:35.763Z,95993.78
2023-02-11T03:16:12.195Z,95989.25
2023-02-11T03:18:42.833Z,95994.59
2023-02-11T03:21:11.098Z,95987.84
2023-02-11T03:23:44.571Z,95992.91
2023-02-11T03:26:23.407Z,95986.75
2023-02-11T03:29:27.797Z,95989.94
2023-02-11T03:32:03.683Z,95992.06
2023-02-11T03:34:36.391Z,95997.13
2023-02-11T03:37:13.442Z,95992.53
2023-02-11T03:39:46.434Z,95998.50
2023-02-11T03:42:15.396Z,95991.56
2023-02-11T03:44:59.963Z,95988.63
2023-02-11T03:47:29.562Z,95990.78
2023-02-11T03:49:59.399Z,95989.16
2023-02-11T03:52:29.548Z,95986.72
2023-02-11T03:54:59.373Z,95987.00
2023-02-11T03:57:26.103Z,95984.88
2023-02-11T03:59:58.430Z,95982.47
2023-02-11T04:02:29.551Z,95985.94
2023-02-11T04:04:56.886Z,95988.09
2023-02-11T04:07:23.994Z,95981.69
2023-02-11T04:09:50.765Z,95986.75
2023-02-11T04:12:17.960Z,95990.22
2023-02-11T04:14:44.761Z,95998.53
2023-02-11T04:17:11.989Z,96008.41
2023-02-11T04:19:39.126Z,96012.94
2023-02-11T04:22:05.961Z,96017.53
2023-02-11T04:24:32.752Z,96020.72
2023-02-11T04:26:59.633Z,96030.94
2023-02-11T04:29:26.315Z,96027.41
2023-02-11T04:31:53.046Z,96022.03
2023-02-11T04:34:19.768Z,96027.69
2023-02-11T04:36:46.518Z,96023.69
2023-02-11T04:39:13.325Z,96026.34
2023-02-11T04:41:40.024Z,96022.06
2023-02-11T04:44:06.748Z,96026.88
2023-02-11T04:46:33.439Z,96020.22
2023-02-11T04:49:00.117Z,96034.44
2023-02-11T04:51:26.946Z,96034.34
2023-02-11T04:53:53.636Z,96028.50
2023-02-11T04:56:20.478Z,96033.53
2023-02-11T04:58:47.184Z,96029.00
2023-02-11T05:01:15.884Z,96035.72
2023-02-11T05:03:43.375Z,96023.16
2023-02-11T05:06:11.090Z,96029.28
2023-02-11T05:08:38.230Z,96024.44
2023-02-11T05:11:05.373Z,96022.03
2023-02-11T05:13:32.498Z,96015.16
2023-02-11T05:15:59.428Z,96009.78
2023-02-11T05:18:26.118Z,96016.69
2023-02-11T05:20:52.826Z,96022.59
2023-02-11T05:23:19.539Z,96014.84
2023-02-11T05:25:46.277Z,96019.66
2023-02-11T05:28:13.000Z,96020.44
2023-02-11T05:30:39.814Z,96021.75
2023-02-11T05:33:06.762Z,96021.22
2023-02-11T05:35:35.712Z,96017.47
2023-02-11T05:38:02.372Z,96030.06
2023-02-11T05:40:29.097Z,96029.78
2023-02-11T05:42:55.809Z,96028.94
2023-02-11T05:45:22.637Z,96010.00
2023-02-11T05:47:49.293Z,96006.56
2023-02-11T05:50:16.037Z,96001.47
2023-02-11T05:52:42.778Z,96002.19
2023-02-11T05:55:09.714Z,95991.84
2023-02-11T05:57:36.352Z,95980.66
2023-02-11T06:00:04.793Z,95973.22
2023-02-11T06:02:39.459Z,95963.63
2023-02-11T06:05:06.641Z,95963.88
2023-02-11T06:07:33.407Z,95952.91
2023-02-11T06:10:00.384Z,95953.75
2023-02-11T06:12:27.176Z,95948.94
2023-02-11T06:14:54.157Z,95943.56
2023-02-11T06:17:20.901Z,95938.25
2023-02-11T06:19:47.600Z,95940.13
2023-02-11T06:22:14.280Z,95948.94
2023-02-11T06:24:58.918Z,95931.53
2023-02-11T06:27:26.875Z,95932.34
2023-02-11T06:29:56.541Z,95924.84
2023-02-11T06:32:43.280Z,95928.59
2023-02-11T06:35:12.100Z,95926.47
2023-02-11T06:37:40.200Z,95931.53
2023-02-11T06:40:07.551Z,95933.44
2023-02-11T06:42:38.808Z,95925.91
2023-02-11T06:45:06.287Z,95927.53
2023-02-11T06:47:33.534Z,95924.56
2023-02-11T06:50:00.389Z,95935.03
2023-02-11T06:52:27.177Z,95930.47
2023-02-11T06:54:54.445Z,95925.09
2023-02-11T06:57:21.457Z,95923.75
2023-02-11T06:59:48.324Z,95923.47
2023-02-11T07:02:20.631Z,95940.06
2023-02-11T07:04:48.019Z,95945.94
2023-02-11T07:07:14.819Z,95945.66
2023-02-11T07:09:41.951Z,95958.50
2023-02-11T07:12:10.660Z,95961.69
2023-02-11T07:14:37.645Z,95974.28
2023-02-11T07:17:05.333Z,95981.50
2023-02-11T07:19:35.108Z,95973.72
2023-02-11T07:22:01.870Z,95986.88
2023-02-11T07:24:28.599Z,95987.47
2023-02-11T07:26:55.321Z,95983.91
2023-02-11T07:29:22.719Z,95994.91
2023-02-11T07:32:06.800Z,95999.44
2023-02-11T07:34:36.679Z,95998.88
2023-02-11T07:37:03.494Z,95999.38
2023-02-11T07:39:30.438Z,95994.00
2023-02-11T07:41:59.746Z,95984.63
2023-02-11T07:44:27.533Z,95984.63
2023-02-11T07:46:54.383Z,95981.38
2023-02-11T07:49:21.133Z,95987.56
2023-02-11T07:51:49.176Z,95991.06
2023-02-11T07:54:15.986Z,95995.31
2023-02-11T07:56:43.212Z,95994.53
2023-02-11T07:59:11.544Z,95990.13
2023-02-11T08:01:38.932Z,96001.03
2023-02-11T08:04:05.753Z,96004.72
2023-02-11T08:06:34.459Z,95995.25
2023-02-11T08:09:09.345Z,95998.28
2023-02-11T08:11:36.300Z,96003.91
2023-02-11T08:14:03.185Z,95995.81
2023-02-11T08:16:34.502Z,95995.81
2023-02-11T08:19:05.345Z,95986.66
2023-02-11T08:21:32.078Z,95992.44
2023-02-11T08:23:59.113Z,95970.44
2023-02-11T08:26:29.595Z,95970.28
2023-02-11T08:28:57.630Z,95972.97
2023-02-11T08:31:31.384Z,95976.88
2023-02-11T08:33:58.255Z,95975.66
2023-02-11T08:36:28.551Z,95979.56
2023-02-11T08:39:08.613Z,95978.34
2023-02-11T08:41:43.682Z,95974.72
2023-02-11T08:44:10.763Z,95978.66
2023-02-11T08:46:37.682Z,95987.41
2023-02-11T08:49:04.995Z,95994.78
2023-02-11T08:51:32.390Z,95997.69
2023-02-11T08:54:00.827Z,95992.91
2023-02-11T08:56:28.742Z,95988.94
2023-02-11T08:58:57.590Z,95995.47
2023-02-11T09:01:27.131Z,95988.66
2023-02-11T09:03:54.826Z,95988.09
2023-02-11T09:06:22.618Z,95986.19
2023-02-11T09:08:51.408Z,95984.72
2023-02-11T09:11:21.872Z,95988.41
2023-02-11T09:13:48.598Z,95991.91
2023-02-11T09:16:23.012Z,95990.28
2023-02-11T09:18:50.599Z,95988.06
2023-02-11T09:21:19.390Z,95983.28
2023-02-11T09:23:47.912Z,95984.31
2023-02-11T09:26:26.060Z,95980.50
2023-02-11T09:28:53.472Z,95978.50
2023-02-11T09:31:22.644Z,95970.69
2023-02-11T09:33:52.068Z,95974.47
2023-02-11T09:36:24.771Z,95975.91
2023-02-11T09:38:52.452Z,95981.50
2023-02-11T09:41:22.168Z,95982.00
2023-02-11T09:43:51.699Z,95982.66
2023-02-11T09:46:20.068Z,95985.94
2023-02-11T09:48:49.212Z,95994.34
2023-02-11T09:51:34.370Z,95995.91
2023-02-11T09:54:08.026Z,96006.81
2023-02-11T09:56:34.857Z,96001.59
2023-02-11T09:59:01.567Z,95997.53
2023-02-11T10:01:50.248Z,95994.06
2023-02-11T10:04:29.354Z,95991.44
2023-02-11T10:07:14.432Z,95985.03
2023-02-11T10:10:07.840Z,95985.16
2023-02-11T10:12:34.499Z,95987.47
2023-02-11T10:15:04.107Z,95988.59
2023-02-11T10:17:49.725Z,95983.66
2023-02-11T10:20:38.607Z,95990.09
2023-02-11T10:23:35.407Z,95991.13
2023-02-11T10:26:02.781Z,95989.03
2023-02-11T10:28:29.730Z,95991.28
2023-02-11T10:31:35.777Z,95989.06
2023-02-11T10:34:11.177Z,95994.03
2023-02-11T10:36:41.353Z,95983.16
2023-02-11T10:39:21.756Z,95972.59
2023-02-11T10:41:56.460Z,95976.31
2023-02-11T10:44:31.648Z,95970.38
2023-02-11T10:47:05.327Z,95969.09
2023-02-11T10:49:38.161Z,95971.84
2023-02-11T10:52:34.532Z,95971.03
2023-02-11T10:55:24.140Z,95968.72
2023-02-11T10:57:58.983Z,95963.94
2023-02-11T11:00:42.443Z,95969.09
2023-02-11T11:03:25.212Z,95961.00
2023-02-11T11:06:00.141Z,95956.25
2023-02-11T11:08:50.222Z,95943.66
2023-02-11T11:11:22.993Z,95939.06
2023-02-11T11:13:52.718Z,95938.69
2023-02-11T11:16:30.037Z,95938.56
2023-02-11T11:19:09.028Z,95937.59
2023-02-11T11:21:48.042Z,95933.16
2023-02-11T11:24:20.180Z,95936.50
2023-02-11T11:26:53.101Z,95922.44
2023-02-11T11:29:30.492Z,95927.03
2023-02-11T11:32:05.488Z,95923.56
2023-02-11T11:34:33.880Z,95915.69
2023-02-11T11:37:10.048Z,95921.91
2023-02-11T11:39:36.925Z,95919.22
2023-02-11T11:42:23.888Z,95913.19
2023-02-11T11:45:24.870Z,95910.16
2023-02-11T11:48:05.152Z,95903.91
2023-02-11T11:50:53.068Z,95907.16
2023-02-11T11:54:00.146Z,95898.06
2023-02-11T11:56:32.052Z,95896.81
2023-02-11T11:59:03.699Z,95895.75
2023-02-11T12:01:44.624Z,95890.66
2023-02-11T12:04:33.221Z,95888.50
2023-02-11T12:07:12.628Z,95879.06
2023-02-11T12:09:54.127Z,95880.53
2023-02-11T12:12:39.065Z,95880.53
2023-02-11T12:15:28.555Z,95878.59
2023-02-11T12:22:05.608Z,95869.59
2023-02-11T12:25:00.224Z,95880.22
2023-02-11T12:27:41.306Z,95870.91
2023-02-11T12:30:30.204Z,95872.38
2023-02-11T12:33:08.476Z,95873.38
2023-02-11T12:35:53.581Z,95868.03
2023-02-11T12:38:50.416Z,95870.94
2023-02-11T12:41:45.251Z,95862.22
2023-02-11T12:44:32.397Z,95869.47
2023-02-11T12:47:12.912Z,95862.59
2023-02-11T12:49:45.752Z,95859.88
2023-02-11T12:52:23.550Z,95864.72
2023-02-11T12:54:56.144Z,95856.66
2023-02-11T12:57:30.129Z,95858.25
2023-02-11T13:00:07.536Z,95855.31
2023-02-11T13:02:34.335Z,95857.88
2023-02-11T13:05:29.480Z,95858.03
2023-02-11T13:08:09.012Z,95856.50
2023-02-11T13:10:39.422Z,95859.50
2023-02-11T13:13:19.581Z,95860.59
2023-02-11T13:16:08.289Z,95857.66
2023-02-11T13:18:53.748Z,95856.81
2023-02-11T13:21:38.223Z,95865.56
2023-02-11T13:24:13.254Z,95854.56
2023-02-11T13:26:59.221Z,95855.53
2023-02-11T13:29:56.415Z,95855.13
2023-02-11T13:32:23.269Z,95856.38
2023-02-11T13:34:52.949Z,95848.44
2023-02-11T13:37:32.721Z,95855.13
2023-02-11T13:40:20.025Z,95850.50
2023-02-11T13:43:01.570Z,95850.84
2023-02-11T13:45:34.732Z,95854.38
2023-02-11T13:48:05.630Z,95855.59
2023-02-11T13:51:13.017Z,95844.28
2023-02-11T13:53:47.953Z,95856.69
2023-02-11T13:56:31.139Z,95849.13
2023-02-11T13:59:01.983Z,95841.25
2023-02-11T14:02:07.430Z,95838.03
2023-02-11T14:04:53.060Z,95840.88
2023-02-11T14:07:52.385Z,95835.97
2023-02-11T14:10:43.944Z,95842.50
2023-02-11T14:13:19.648Z,95839.00
2023-02-11T14:15:46.838Z,95840.25
2023-02-11T14:18:44.828Z,95835.84
2023-02-11T14:21:19.790Z,95829.97
2023-02-11T14:23:47.502Z,95838.63
2023-02-11T14:26:20.948Z,95835.47
2023-02-11T14:29:15.253Z,95842.97
2023-02-11T14:31:54.227Z,95845.88
2023-02-11T14:34:36.324Z,95851.19
2023-02-11T14:37:12.063Z,95851.22
2023-02-11T14:39:52.799Z,95848.47
2023-02-11T14:42:22.631Z,95852.44
2023-02-11T14:44:51.517Z,95851.91
2023-02-11T14:47:27.309Z,95856.00
2023-02-11T14:49:54.685Z,95857.13
2023-02-11T14:52:30.762Z,95862.03
2023-02-11T14:55:14.725Z,95861.81
2023-02-11T14:57:49.498Z,95865.19
2023-02-11T15:00:21.761Z,95869.97
2023-02-11T15:02:49.061Z,95879.28
2023-02-11T15:05:32.316Z,95871.63
2023-02-11T15:08:02.967Z,95876.97
2023-02-11T15:10:55.457Z,95882.78
2023-02-11T15:13:27.404Z,95880.31
2023-02-11T15:15:57.912Z,95871.28
2023-02-11T15:18:35.566Z,95878.53
2023-02-11T15:21:02.685Z,95883.97
2023-02-11T15:23:31.280Z,95877.16
2023-02-11T15:26:04.070Z,95881.78
2023-02-11T15:28:34.204Z,95885.94
2023-02-11T15:31:05.213Z,95876.84
2023-02-11T15:33:33.040Z,95879.56
2023-02-11T15:36:02.940Z,95882.28
2023-02-11T15:38:30.599Z,95888.94
2023-02-11T15:41:00.953Z,95890.38
2023-02-11T15:43:48.712Z,95885.44
2023-02-11T15:46:23.634Z,95891.16
2023-02-11T15:48:55.226Z,95887.44
2023-02-11T15:51:37.800Z,95892.84
2023-02-11T15:54:21.012Z,95889.81
2023-02-11T15:56:51.188Z,95897.72
2023-02-11T15:59:40.584Z,95899.47
2023-02-11T16:02:16.867Z,95902.59
2023-02-11T16:05:43.276Z,95900.69
2023-02-11T16:08:29.994Z,95901.59
2023-02-11T16:11:03.455Z,95901.72
2023-02-11T16:13:37.017Z,95910.16
2023-02-11T16:16:17.675Z,95918.72
2023-02-11T16:19:04.629Z,95923.03
2023-02-11T16:21:39.383Z,95926.19
2023-02-11T16:24:20.001Z,95922.19
2023-02-11T16:26:52.878Z,95928.81
2023-02-11T16:29:26.063Z,95931.97
2023-02-11T16:32:20.733Z,95922.22
2023-02-11T16:34:47.773Z,95927.22
2023-02-11T16:37:14.737Z,95931.28
2023-02-11T16:39:42.916Z,95939.03
2023-02-11T16:42:12.639Z,95943.88
2023-02-11T16:44:41.790Z,95940.59
2023-02-11T16:47:20.930Z,95942.53
2023-02-11T16:49:55.633Z,95950.06
2023-02-11T16:52:25.340Z,95953.28
2023-02-11T16:54:53.253Z,95954.09
2023-02-11T16:57:24.181Z,95964.47
2023-02-11T16:59:55.658Z,95961.09
2023-02-11T17:02:32.786Z,95962.09
2023-02-11T17:05:07.829Z,95963.09
2023-02-11T17:07:41.825Z,95972.97
2023-02-11T17:10:20.037Z,95968.47
2023-02-11T17:12:52.539Z,95965.44
2023-02-11T17:15:26.605Z,95974.41
2023-02-11T17:18:03.792Z,95975.31
2023-02-11T17:20:40.747Z,95981.88
2023-02-11T17:23:09.851Z,95980.06
2023-02-11T17:25:42.631Z,95987.53
2023-02-11T17:28:26.219Z,95986.53
2023-02-11T17:30:56.001Z,95991.50
2023-02-11T17:33:25.286Z,95990.53
2023-02-11T17:35:54.291Z,95983.41
2023-02-11T17:38:22.535Z,95980.59
2023-02-11T17:41:00.875Z,95983.28
2023-02-11T17:43:30.861Z,95993.69
2023-02-11T17:45:59.659Z,95996.53
2023-02-11T17:48:26.652Z,95993.03
2023-02-11T17:50:54.461Z,95989.75
2023-02-11T17:53:21.157Z,95992.59
2023-02-11T17:55:48.108Z,95989.25
2023-02-11T17:58:14.975Z,95984.94
2023-02-11T18:00:43.190Z,95987.84
2023-02-11T18:03:10.389Z,95995.06
2023-02-11T18:05:38.121Z,95995.38
2023-02-11T18:08:07.895Z,96002.28
2023-02-11T18:10:34.861Z,95995.72
2023-02-11T18:13:01.769Z,95996.38
2023-02-11T18:15:30.392Z,95990.03
2023-02-11T18:18:00.108Z,95994.97
2023-02-11T18:20:26.984Z,96003.50
2023-02-11T18:22:53.977Z,96007.28
2023-02-11T18:25:21.221Z,96004.38
2023-02-11T18:27:49.378Z,96007.72
2023-02-11T18:30:20.594Z,96013.75
2023-02-11T18:32:48.047Z,96018.59
2023-02-11T18:35:15.864Z,96017.19
2023-02-11T18:37:43.184Z,96015.94
2023-02-11T18:40:11.397Z,96011.72
2023-02-11T18:42:41.505Z,96018.66
2023-02-11T18:45:13.331Z,96024.59
2023-02-11T18:47:40.188Z,96032.50
2023-02-11T18:50:11.262Z,96036.19
2023-02-11T18:52:38.971Z,96034.41
2023-02-11T18:55:07.850Z,96036.09
2023-02-11T18:57:36.210Z,96034.50
2023-02-11T19:00:07.679Z,96034.22
2023-02-11T19:02:35.371Z,96036.66
2023-02-11T19:05:06.691Z,96039.09
2023-02-11T19:07:33.508Z,96041.53
2023-02-11T19:10:00.253Z,96040.72
2023-02-11T19:12:28.626Z,96050.13
2023-02-11T19:14:59.763Z,96052.03
2023-02-11T19:17:28.569Z,96055.78
2023-02-11T19:20:00.248Z,96052.56
2023-02-11T19:22:29.740Z,96053.34
2023-02-11T19:25:07.974Z,96057.34
2023-02-11T19:27:39.795Z,96056.38
2023-02-11T19:30:12.671Z,96053.22
2023-02-11T19:32:48.165Z,96061.66
2023-02-11T19:35:17.320Z,96049.81
2023-02-11T19:37:53.625Z,96049.81
2023-02-11T19:41:07.240Z,96065.75
2023-02-11T19:43:46.912Z,96066.25
2023-02-11T19:46:13.688Z,96065.50
2023-02-11T19:48:43.013Z,96061.50
2023-02-11T19:51:13.406Z,96050.22
2023-02-11T19:53:41.317Z,96053.97
2023-02-11T19:56:11.527Z,96056.13
2023-02-11T19:58:40.400Z,96054.03
2023-02-11T20:01:19.712Z,96060.19
2023-02-11T20:06:38.425Z,96048.16
2023-02-11T20:09:13.463Z,96035.78
2023-02-11T20:11:44.309Z,96033.63
2023-02-11T20:14:15.906Z,96036.63
2023-02-11T20:16:49.187Z,96030.16
2023-02-11T20:19:20.364Z,96028.31
2023-02-11T20:21:52.386Z,96031.53
2023-02-11T20:24:21.524Z,96031.03
2023-02-11T20:26:51.259Z,96038.50
2023-02-11T20:29:21.375Z,96036.06
2023-02-11T20:31:50.836Z,96044.38
2023-02-11T20:34:22.073Z,96034.19
2023-02-11T20:36:55.034Z,96042.78
2023-02-11T20:39:30.333Z,96041.41
2023-02-11T20:42:06.661Z,96042.72
2023-02-11T20:44:37.054Z,96041.72
2023-02-11T20:47:09.636Z,96042.78
2023-02-11T20:49:41.855Z,96045.75
2023-02-11T20:52:18.338Z,96041.72
2023-02-11T20:55:07.092Z,96049.22
2023-02-11T20:57:35.449Z,96061.59
2023-02-11T21:00:06.824Z,96051.91
2023-02-11T21:02:39.160Z,96054.31
2023-02-11T21:05:07.373Z,96049.78
2023-02-11T21:07:36.141Z,96046.59
2023-02-11T21:10:06.783Z,96038.53
2023-02-11T21:12:33.639Z,96043.06
2023-02-11T21:15:05.016Z,96045.19
2023-02-11T21:17:32.572Z,96044.63
2023-02-11T21:20:01.723Z,96048.88
2023-02-11T21:22:29.642Z,96050.44
2023-02-11T21:24:58.941Z,96047.56
2023-02-11T21:27:33.049Z,96051.59
2023-02-11T21:30:01.820Z,96047.56
2023-02-11T21:32:38.597Z,96065.91
2023-02-11T21:35:10.754Z,96060.84
2023-02-11T21:37:38.020Z,96057.34
2023-02-11T21:40:12.212Z,96064.34
2023-02-11T21:42:40.352Z,96064.63
2023-02-11T21:45:08.630Z,96061.84
2023-02-11T21:47:38.812Z,96069.38
2023-02-11T21:50:07.352Z,96062.44
2023-02-11T21:52:34.462Z,96063.50
2023-02-11T21:55:02.294Z,96061.31
2023-02-11T21:57:29.958Z,96058.34
2023-02-11T21:59:56.966Z,96061.56
2023-02-11T22:02:24.296Z,96063.75
2023-02-11T22:04:51.211Z,96065.31
2023-02-11T22:07:20.667Z,96058.56
2023-02-11T22:09:47.662Z,96062.47
2023-02-11T22:12:18.914Z,96058.13
2023-02-11T22:14:47.116Z,96054.31
2023-02-11T22:17:17.781Z,96061.75
2023-02-11T22:19:44.779Z,96070.63
2023-02-11T22:22:13.946Z,96078.13
2023-02-11T22:24:41.713Z,96074.31
2023-02-11T22:27:08.376Z,96078.31
2023-02-11T22:29:35.024Z,96070.34
2023-02-11T22:32:02.050Z,96065.50
2023-02-11T22:34:28.805Z,96061.66
2023-02-11T22:36:55.677Z,96064.53
2023-02-11T22:39:22.442Z,96072.53
2023-02-11T22:41:49.801Z,96068.50
2023-02-11T22:44:17.273Z,96072.38
2023-02-11T22:46:44.299Z,96079.56
2023-02-11T22:49:14.244Z,96072.84
2023-02-11T22:51:44.496Z,96075.03
2023-02-11T22:54:16.676Z,96073.44
2023-02-11T22:56:44.320Z,96072.63
2023-02-11T22:59:13.161Z,96078.53
2023-02-11T23:01:40.764Z,96092.75
2023-02-11T23:04:10.627Z,96086.75
2023-02-11T23:06:37.388Z,96094.69
2023-02-11T23:09:05.288Z,96085.25
2023-02-11T23:11:33.013Z,96081.88
2023-02-11T23:14:01.309Z,96085.03
2023-02-11T23:16:31.813Z,96082.31
2023-02-11T23:19:00.429Z,96081.75
2023-02-11T23:21:30.971Z,96088.97
2023-02-11T23:24:04.561Z,96088.41
2023-02-11T23:26:31.613Z,96083.47
2023-02-11T23:28:59.537Z,96081.44
2023-02-11T23:31:28.090Z,96085.50
2023-02-11T23:33:55.139Z,96070.91
2023-02-11T23:36:22.855Z,96066.56
2023-02-11T23:38:49.890Z,96063.06
2023-02-11T23:41:18.092Z,96068.75
2023-02-11T23:43:50.749Z,96072.91
2023-02-11T23:46:18.028Z,96073.94
2023-02-11T23:48:44.735Z,96071.75
2023-02-11T23:51:11.539Z,96072.28
2023-02-11T23:53:39.108Z,96075.63
2023-02-11T23:56:11.806Z,96070.22
2023-02-11T23:58:38.942Z,96069.41
